Time;durP1;ratioP1;P1;durP2;ratioP2;P2;SDS_P1;SDS_P2;PMS_P1;PMS_P2;Temp;Humidity;BMP_temperature;BMP_pressure;BME280_temperature;BME280_humidity;BME280_pressure;Samples;Min_cycle;Max_cycle;Signal;HPM_P1;HPM_P2
2021/12/29 00:00:02;;;;;;;0.10;0.10;;;-2.00;99.90;;;;;;4976726;28;20026;-89
2021/12/29 00:02:27;;;;;;;1.35;0.35;;;-2.00;99.90;;;;;;4976561;28;20029;-90
2021/12/29 00:04:53;;;;;;;0.17;0.17;;;-2.00;99.90;;;;;;4976214;28;20545;-89
2021/12/29 00:07:20;;;;;;;0.20;0.20;;;-2.00;99.90;;;;;;4976520;28;20492;-89
2021/12/29 00:09:46;;;;;;;0.10;0.10;;;-2.00;99.90;;;;;;4976348;28;20436;-90
2021/12/29 00:12:14;;;;;;;0.20;0.20;;;-2.00;99.90;;;;;;4976498;28;20389;-89
2021/12/29 00:14:40;;;;;;;0.28;0.28;;;-2.00;99.90;;;;;;4976161;28;20461;-89
2021/12/29 00:17:06;;;;;;;0.47;0.40;;;-2.00;99.90;;;;;;4976675;28;20117;-89
2021/12/29 00:19:31;;;;;;;0.20;0.20;;;-2.00;99.90;;;;;;4976016;28;20033;-89
2021/12/29 00:21:57;;;;;;;0.10;0.10;;;-2.00;99.90;;;;;;4976661;28;20026;-89
2021/12/29 00:24:23;;;;;;;3.22;0.30;;;-2.00;99.90;;;;;;4976424;28;20033;-89
2021/12/29 00:26:49;;;;;;;0.80;0.30;;;-2.00;99.90;;;;;;4976265;28;20037;-89
2021/12/29 00:29:15;;;;;;;0.10;0.10;;;-2.00;99.90;;;;;;4975930;28;20031;-90
2021/12/29 00:31:40;;;;;;;0.25;0.25;;;-2.00;99.90;;;;;;4976152;28;20050;-89
2021/12/29 00:34:06;;;;;;;0.93;0.30;;;-2.00;99.90;;;;;;4975796;28;20030;-90
2021/12/29 00:36:32;;;;;;;0.10;0.10;;;-1.90;99.90;;;;;;4976118;28;20057;-89
2021/12/29 00:38:58;;;;;;;0.20;0.20;;;-1.90;99.90;;;;;;4976075;28;20026;-89
2021/12/29 00:41:23;;;;;;;0.10;0.10;;;-1.90;99.90;;;;;;4975892;28;20038;-89
2021/12/29 00:43:49;;;;;;;0.60;0.20;;;-1.90;99.90;;;;;;4976758;28;20022;-89
2021/12/29 00:46:17;;;;;;;0.10;0.10;;;-1.90;99.90;;;;;;4975845;28;20050;-89
2021/12/29 00:48:44;;;;;;;0.32;0.20;;;-1.90;99.90;;;;;;4975704;28;20438;-89
2021/12/29 00:51:11;;;;;;;0.10;0.10;;;-2.00;99.90;;;;;;4975108;28;20386;-89
2021/12/29 00:53:37;;;;;;;0.10;0.10;;;-1.90;99.90;;;;;;4974178;28;20093;-89
2021/12/29 00:56:03;;;;;;;0.13;0.13;;;-1.90;99.90;;;;;;4975579;28;20087;-89
2021/12/29 00:58:29;;;;;;;0.10;0.10;;;-1.90;99.90;;;;;;4975750;28;20177;-89
2021/12/29 01:00:56;;;;;;;0.13;0.13;;;-1.90;99.90;;;;;;4975497;28;20023;-89
2021/12/29 01:03:22;;;;;;;2.03;0.20;;;-1.90;99.90;;;;;;4975508;28;20034;-89
2021/12/29 01:05:48;;;;;;;0.45;0.20;;;-1.90;99.90;;;;;;4975349;28;20469;-89
2021/12/29 01:08:14;;;;;;;0.73;0.30;;;-1.90;99.90;;;;;;4991260;28;20042;-89
2021/12/29 01:10:44;;;;;;;0.25;0.25;;;-1.90;99.90;;;;;;4975403;28;20029;-89
2021/12/29 01:13:14;;;;;;;0.57;0.30;;;-1.90;99.90;;;;;;4975492;28;20114;-89
2021/12/29 01:18:27;;;;;;;0.47;0.25;;;-1.90;99.90;;;;;;4976851;28;20146;-89
2021/12/29 01:20:54;;;;;;;0.20;0.20;;;-1.90;99.90;;;;;;4975139;28;20081;-89
2021/12/29 01:23:21;;;;;;;1.27;0.10;;;-1.90;99.90;;;;;;4975196;28;20126;-89
2021/12/29 01:25:47;;;;;;;0.10;0.10;;;-1.90;99.90;;;;;;4975010;28;20461;-90
2021/12/29 01:28:13;;;;;;;0.20;0.20;;;-1.90;99.90;;;;;;4976100;28;20066;-89
2021/12/29 01:30:38;;;;;;;0.10;0.10;;;-1.90;99.90;;;;;;4975049;28;20027;-89
2021/12/29 01:33:06;;;;;;;0.10;0.10;;;-1.90;99.90;;;;;;4975260;28;20376;-89
2021/12/29 01:35:36;;;;;;;0.10;0.10;;;-1.90;99.90;;;;;;4974730;28;20081;-89
2021/12/29 01:38:04;;;;;;;0.10;0.10;;;-1.90;99.90;;;;;;4975114;28;20049;-89
2021/12/29 01:40:31;;;;;;;0.17;0.17;;;-1.90;99.90;;;;;;4976120;28;20158;-89
2021/12/29 01:42:58;;;;;;;0.30;0.30;;;-1.90;99.90;;;;;;4974861;28;20482;-89
2021/12/29 01:45:24;;;;;;;0.25;0.25;;;-1.90;99.90;;;;;;4974424;28;20037;-89
2021/12/29 01:47:52;;;;;;;0.35;0.35;;;-1.90;99.90;;;;;;4974556;28;20034;-89
2021/12/29 01:50:18;;;;;;;0.13;0.13;;;-1.90;99.90;;;;;;4974040;28;20485;-89
2021/12/29 01:52:52;;;;;;;0.57;0.20;;;-1.90;99.90;;;;;;4974999;28;20503;-88
2021/12/29 01:55:18;;;;;;;0.20;0.20;;;-1.90;99.90;;;;;;4974658;28;20537;-89
2021/12/29 01:57:44;;;;;;;0.10;0.10;;;-1.80;99.90;;;;;;4974631;28;20051;-89
2021/12/29 02:00:17;;;;;;;0.10;0.10;;;-1.90;99.90;;;;;;4974538;28;20031;-89
2021/12/29 02:02:43;;;;;;;0.15;0.10;;;-1.90;99.90;;;;;;4974646;28;20543;-89
2021/12/29 02:05:09;;;;;;;0.20;0.20;;;-1.90;99.90;;;;;;4974448;28;20026;-89
2021/12/29 02:07:35;;;;;;;0.10;0.10;;;-1.90;99.90;;;;;;4975619;28;20035;-89
2021/12/29 02:10:01;;;;;;;0.13;0.13;;;-1.80;99.90;;;;;;4975760;28;20107;-89
2021/12/29 02:12:27;;;;;;;0.10;0.10;;;-1.90;99.90;;;;;;4975751;28;20023;-89
2021/12/29 02:14:53;;;;;;;0.32;0.20;;;-1.90;99.90;;;;;;4974037;28;20054;-89
2021/12/29 02:17:18;;;;;;;0.20;0.20;;;-1.90;99.90;;;;;;4975102;28;20058;-89
2021/12/29 02:19:46;;;;;;;0.75;0.45;;;-1.90;99.90;;;;;;4975726;28;20470;-89
2021/12/29 02:22:30;;;;;;;0.10;0.10;;;-1.90;99.90;;;;;;4974403;28;20057;-89
2021/12/29 02:25:08;;;;;;;0.10;0.10;;;-1.90;99.90;;;;;;4974365;28;20034;-89
2021/12/29 02:27:36;;;;;;;0.22;0.22;;;-1.90;99.90;;;;;;4974297;28;20058;-89
2021/12/29 02:30:03;;;;;;;0.50;0.50;;;-1.90;99.90;;;;;;4972922;28;20027;-89
2021/12/29 02:32:29;;;;;;;0.10;0.10;;;-1.80;99.90;;;;;;4973774;28;20029;-89
2021/12/29 02:34:55;;;;;;;0.10;0.10;;;-1.80;99.90;;;;;;4974235;28;20026;-89
2021/12/29 02:37:22;;;;;;;0.32;0.20;;;-1.80;99.90;;;;;;4974286;28;20030;-89
2021/12/29 02:39:50;;;;;;;0.10;0.10;;;-1.80;99.90;;;;;;4974374;28;20022;-89
2021/12/29 02:42:20;;;;;;;0.52;0.30;;;-1.80;99.90;;;;;;4974312;28;20039;-89
2021/12/29 02:44:46;;;;;;;0.40;0.40;;;-1.80;99.90;;;;;;4974728;28;20350;-89
2021/12/29 02:47:12;;;;;;;0.57;0.50;;;-1.80;99.90;;;;;;4974291;28;20042;-89
2021/12/29 02:49:38;;;;;;;1.17;0.30;;;-1.80;99.90;;;;;;4973556;28;20027;-89
2021/12/29 02:52:04;;;;;;;0.20;0.20;;;-1.80;99.90;;;;;;4973470;28;20031;-89
2021/12/29 02:54:30;;;;;;;0.30;0.30;;;-1.80;99.90;;;;;;4974613;28;20023;-89
2021/12/29 02:56:56;;;;;;;0.47;0.47;;;-1.80;99.90;;;;;;4974728;28;20023;-89
2021/12/29 02:59:23;;;;;;;0.73;0.45;;;-1.80;99.90;;;;;;4973757;28;20022;-89
2021/12/29 03:01:49;;;;;;;0.45;0.43;;;-1.80;99.90;;;;;;4973722;28;20042;-89
2021/12/29 03:04:15;;;;;;;0.30;0.22;;;-1.80;99.90;;;;;;4975007;28;20027;-89
2021/12/29 03:06:41;;;;;;;0.98;0.30;;;-1.80;99.90;;;;;;4974475;28;20489;-88
2021/12/29 03:09:09;;;;;;;0.32;0.32;;;-1.80;99.90;;;;;;4973347;28;20505;-88
2021/12/29 03:11:36;;;;;;;0.50;0.35;;;-1.80;99.90;;;;;;4973888;28;20524;-88
2021/12/29 03:14:02;;;;;;;0.20;0.20;;;-1.80;99.90;;;;;;4973821;28;20492;-88
2021/12/29 03:16:28;;;;;;;0.20;0.15;;;-1.80;99.90;;;;;;4975254;28;20030;-88
2021/12/29 03:18:53;;;;;;;0.80;0.45;;;-1.80;99.90;;;;;;4978210;28;20030;-89
2021/12/29 03:21:19;;;;;;;0.30;0.30;;;-1.80;99.90;;;;;;4974143;28;20023;-88
2021/12/29 03:23:45;;;;;;;0.52;0.30;;;-1.80;99.90;;;;;;4968809;28;20082;-89
2021/12/29 03:26:11;;;;;;;0.10;0.10;;;-1.70;99.90;;;;;;4977262;28;20030;-88
2021/12/29 03:28:37;;;;;;;0.35;0.22;;;-1.80;99.90;;;;;;4977808;28;20110;-88
2021/12/29 03:31:03;;;;;;;0.28;0.28;;;-1.70;99.90;;;;;;4976874;28;20019;-89
2021/12/29 03:33:30;;;;;;;1.25;0.40;;;-1.70;99.90;;;;;;4977386;28;20027;-88
2021/12/29 03:36:00;;;;;;;0.20;0.20;;;-1.70;99.90;;;;;;4978428;28;20050;-89
2021/12/29 03:38:28;;;;;;;0.40;0.40;;;-1.70;99.90;;;;;;4977272;28;20485;-88
2021/12/29 03:40:55;;;;;;;0.30;0.30;;;-1.80;99.90;;;;;;4977202;28;20399;-89
2021/12/29 03:43:22;;;;;;;0.40;0.40;;;-1.70;99.90;;;;;;4977142;28;20031;-88
2021/12/29 03:45:51;;;;;;;0.98;0.40;;;-1.70;99.90;;;;;;4976673;28;20041;-88
2021/12/29 03:48:18;;;;;;;2.10;0.50;;;-1.70;99.90;;;;;;4976525;28;20031;-88
2021/12/29 03:50:44;;;;;;;0.35;0.35;;;-1.70;99.90;;;;;;4976492;28;20031;-89
2021/12/29 03:53:10;;;;;;;0.25;0.25;;;-1.70;99.90;;;;;;4976536;28;20075;-88
2021/12/29 03:55:36;;;;;;;1.27;0.85;;;-1.70;99.90;;;;;;4975705;28;20393;-89
2021/12/29 03:58:02;;;;;;;0.65;0.57;;;-1.70;99.90;;;;;;4976540;28;20191;-88
2021/12/29 04:00:27;;;;;;;0.20;0.20;;;-1.70;99.90;;;;;;4977901;28;20029;-89
2021/12/29 04:02:53;;;;;;;0.35;0.30;;;-1.70;99.90;;;;;;4976757;28;20117;-89
2021/12/29 04:05:21;;;;;;;0.30;0.30;;;-1.70;99.90;;;;;;4976486;28;20019;-89
2021/12/29 04:07:48;;;;;;;0.88;0.20;;;-1.70;99.90;;;;;;4976531;28;20055;-89
2021/12/29 04:10:14;;;;;;;0.20;0.20;;;-1.70;99.90;;;;;;4976650;28;20070;-89
2021/12/29 04:12:40;;;;;;;0.88;0.38;;;-1.70;99.90;;;;;;4976390;28;20034;-89
2021/12/29 04:15:08;;;;;;;1.27;0.40;;;-1.70;99.90;;;;;;4976213;28;20081;-89
2021/12/29 04:17:37;;;;;;;0.43;0.40;;;-1.70;99.90;;;;;;4976198;28;20114;-89
2021/12/29 04:23:01;;;;;;;0.43;0.43;;;-1.70;99.90;;;;;;4977453;28;20069;-89
2021/12/29 04:25:27;;;;;;;0.90;0.35;;;-1.70;99.90;;;;;;4976963;28;20031;-90
2021/12/29 04:27:57;;;;;;;0.25;0.25;;;-1.70;99.90;;;;;;4975596;28;20034;-89
2021/12/29 04:30:25;;;;;;;0.40;0.40;;;-1.70;99.90;;;;;;4977015;28;20023;-89
2021/12/29 04:32:52;;;;;;;0.55;0.55;;;-1.70;99.90;;;;;;4975725;28;20022;-90
2021/12/29 04:35:20;;;;;;;0.75;0.68;;;-1.70;99.90;;;;;;4975669;28;20038;-89
2021/12/29 04:37:45;;;;;;;0.43;0.40;;;-1.70;99.90;;;;;;4965081;28;20027;-89
2021/12/29 04:40:11;;;;;;;0.25;0.25;;;-1.70;99.90;;;;;;4976051;28;20437;-89
2021/12/29 04:42:37;;;;;;;0.13;0.13;;;-1.70;99.90;;;;;;4992540;28;20504;-89
2021/12/29 04:45:04;;;;;;;0.25;0.25;;;-1.70;99.90;;;;;;4971642;28;20035;-89
2021/12/29 04:47:31;;;;;;;0.30;0.30;;;-1.70;99.90;;;;;;4956555;28;20049;-89
2021/12/29 04:50:02;;;;;;;0.20;0.20;;;-1.70;99.90;;;;;;4956441;29;20047;-89
2021/12/29 04:52:30;;;;;;;0.50;0.28;;;-1.70;99.90;;;;;;4956803;29;20019;-89
2021/12/29 04:54:56;;;;;;;0.40;0.40;;;-1.70;99.90;;;;;;4956309;29;20066;-88
2021/12/29 04:57:22;;;;;;;0.30;0.13;;;-1.70;99.90;;;;;;4965207;28;20037;-89
2021/12/29 04:59:48;;;;;;;1.48;0.50;;;-1.70;99.90;;;;;;4975503;28;20470;-89
2021/12/29 05:02:14;;;;;;;0.20;0.20;;;-1.60;99.90;;;;;;4975537;28;20033;-89
2021/12/29 05:04:55;;;;;;;3.95;0.57;;;-1.70;99.90;;;;;;4975396;28;20030;-88
2021/12/29 05:10:04;;;;;;;0.15;0.15;;;-1.70;99.90;;;;;;4976407;28;20605;-89
2021/12/29 05:12:30;;;;;;;0.55;0.43;;;-1.70;99.90;;;;;;4976400;28;20034;-88
2021/12/29 05:14:56;;;;;;;0.90;0.40;;;-1.70;99.90;;;;;;4975147;28;20054;-88
2021/12/29 05:17:21;;;;;;;1.70;0.40;;;-1.70;99.90;;;;;;4975225;28;20513;-89
2021/12/29 05:19:47;;;;;;;0.38;0.32;;;-1.70;99.90;;;;;;4975036;28;20057;-89
2021/12/29 05:22:13;;;;;;;0.28;0.28;;;-1.60;99.90;;;;;;4975363;28;20023;-90
2021/12/29 05:24:38;;;;;;;0.30;0.22;;;-1.70;99.90;;;;;;4975128;28;20058;-88
2021/12/29 05:27:04;;;;;;;0.38;0.35;;;-1.70;99.90;;;;;;4974860;28;20182;-89
2021/12/29 05:29:30;;;;;;;0.40;0.20;;;-1.60;99.90;;;;;;4974899;28;20117;-89
2021/12/29 05:31:56;;;;;;;1.85;0.30;;;-1.70;99.90;;;;;;4974884;28;20030;-88
2021/12/29 05:34:21;;;;;;;1.45;0.43;;;-1.70;99.90;;;;;;4974927;28;20027;-90
2021/12/29 05:36:47;;;;;;;0.75;0.20;;;-1.70;99.90;;;;;;4974999;28;20022;-90
2021/12/29 05:39:13;;;;;;;0.20;0.17;;;-1.60;99.90;;;;;;4974096;28;20072;-90
2021/12/29 05:41:39;;;;;;;0.30;0.30;;;-1.60;99.90;;;;;;4974970;28;20026;-89
2021/12/29 05:44:05;;;;;;;0.73;0.52;;;-1.70;99.90;;;;;;4974466;28;20042;-91
2021/12/29 05:46:31;;;;;;;0.57;0.40;;;-1.60;99.90;;;;;;4973986;28;20030;-89
2021/12/29 05:53:48;;;;;;;1.83;1.10;;;-1.70;99.90;;;;;;5083405;28;20917;-91
2021/12/29 05:56:14;;;;;;;0.68;0.55;;;-1.70;99.90;;;;;;5050566;28;20037;-91
2021/12/29 05:58:40;;;;;;;0.98;0.82;;;-1.70;99.90;;;;;;5050465;28;20479;-91
2021/12/29 06:01:05;;;;;;;0.75;0.47;;;-1.70;99.90;;;;;;5050538;28;20365;-91
2021/12/29 06:03:31;;;;;;;1.08;0.40;;;-1.70;99.90;;;;;;5050348;28;20056;-91
2021/12/29 06:05:57;;;;;;;1.73;0.88;;;-1.70;99.90;;;;;;5050462;28;20124;-92
2021/12/29 06:08:23;;;;;;;1.02;0.50;;;-1.80;99.90;;;;;;5050101;28;20029;-91
2021/12/29 06:10:48;;;;;;;0.40;0.40;;;-1.80;99.90;;;;;;5050388;28;20033;-91
2021/12/29 06:13:14;;;;;;;1.15;0.70;;;-1.70;99.90;;;;;;5050219;28;20029;-91
2021/12/29 06:15:40;;;;;;;0.30;0.30;;;-1.70;99.90;;;;;;5050144;28;20491;-91
2021/12/29 06:18:06;;;;;;;0.50;0.30;;;-1.70;99.90;;;;;;5050090;28;20033;-91
2021/12/29 06:20:32;;;;;;;1.42;0.80;;;-1.70;99.90;;;;;;5050202;28;20071;-91
2021/12/29 06:22:58;;;;;;;0.50;0.50;;;-1.70;99.90;;;;;;5050845;28;20032;-91
2021/12/29 06:25:29;;;;;;;1.35;0.98;;;-1.70;99.90;;;;;;5049667;28;20025;-91
2021/12/29 06:27:55;;;;;;;1.50;0.55;;;-1.70;99.90;;;;;;5049752;28;20021;-91
2021/12/29 06:30:20;;;;;;;0.40;0.40;;;-1.70;99.90;;;;;;5049852;28;20029;-91
2021/12/29 06:32:46;;;;;;;1.50;0.65;;;-1.70;99.90;;;;;;5048738;28;20033;-91
2021/12/29 06:35:14;;;;;;;0.60;0.60;;;-1.70;99.90;;;;;;5047265;28;20348;-91
2021/12/29 06:37:41;;;;;;;1.15;0.60;;;-1.70;99.90;;;;;;5029126;28;20049;-91
2021/12/29 06:40:07;;;;;;;1.02;0.60;;;-1.70;99.90;;;;;;5029400;28;20029;-91
2021/12/29 06:42:33;;;;;;;0.98;0.88;;;-1.70;99.90;;;;;;5029380;28;20542;-91
2021/12/29 06:44:59;;;;;;;0.75;0.50;;;-1.70;99.90;;;;;;5030607;28;20029;-91
2021/12/29 06:47:26;;;;;;;1.60;0.60;;;-1.70;99.90;;;;;;5029787;28;20458;-91
2021/12/29 06:49:52;;;;;;;1.30;0.70;;;-1.70;99.90;;;;;;5029464;28;20079;-91
2021/12/29 06:52:18;;;;;;;0.38;0.35;;;-1.70;99.90;;;;;;5029549;28;20058;-91
2021/12/29 06:54:44;;;;;;;0.47;0.47;;;-1.70;99.90;;;;;;5029738;28;20026;-91
2021/12/29 06:57:10;;;;;;;0.98;0.85;;;-1.70;99.90;;;;;;5029410;28;20026;-91
2021/12/29 06:59:36;;;;;;;1.67;0.77;;;-1.60;99.90;;;;;;5029486;28;20021;-90
2021/12/29 07:02:02;;;;;;;1.90;0.45;;;-1.60;99.90;;;;;;5029518;28;20030;-90
2021/12/29 07:04:28;;;;;;;0.73;0.68;;;-1.70;99.90;;;;;;5020100;28;20057;-90
2021/12/29 07:06:54;;;;;;;2.65;0.90;;;-1.60;99.90;;;;;;5016225;28;20128;-90
2021/12/29 07:09:20;;;;;;;1.25;1.10;;;-1.70;99.90;;;;;;5016356;28;20111;-91
2021/12/29 07:11:46;;;;;;;1.15;0.60;;;-1.60;99.90;;;;;;5016377;28;20470;-91
2021/12/29 07:14:12;;;;;;;2.65;1.17;;;-1.60;99.90;;;;;;5016155;28;20022;-91
2021/12/29 07:16:39;;;;;;;4.38;0.88;;;-1.60;99.90;;;;;;5016164;28;20112;-91
2021/12/29 07:19:06;;;;;;;1.98;0.85;;;-1.60;99.90;;;;;;5015502;28;20021;-91
2021/12/29 07:21:32;;;;;;;1.48;0.93;;;-1.60;99.90;;;;;;5015916;28;20025;-92
2021/12/29 07:23:58;;;;;;;1.13;0.60;;;-1.60;99.90;;;;;;5016024;28;20077;-91
2021/12/29 07:26:25;;;;;;;0.95;0.70;;;-1.60;99.90;;;;;;5015592;28;20392;-91
2021/12/29 07:28:52;;;;;;;0.63;0.52;;;-1.50;99.90;;;;;;5015796;28;20028;-91
2021/12/29 07:31:18;;;;;;;2.53;0.57;;;-1.50;99.90;;;;;;5015727;28;20044;-91
2021/12/29 07:33:44;;;;;;;1.83;0.75;;;-1.60;99.90;;;;;;5015804;28;20022;-91
2021/12/29 07:36:11;;;;;;;2.15;0.82;;;-1.50;99.90;;;;;;5015730;28;20029;-91
2021/12/29 07:38:38;;;;;;;1.85;0.40;;;-1.50;99.90;;;;;;5015535;28;20033;-91
2021/12/29 07:41:04;;;;;;;1.38;0.75;;;-1.50;99.90;;;;;;5016556;28;20026;-91
2021/12/29 07:43:30;;;;;;;1.15;0.52;;;-1.50;99.90;;;;;;5015524;28;20033;-91
2021/12/29 07:45:56;;;;;;;0.60;0.52;;;-1.50;99.90;;;;;;5015510;28;20026;-91
2021/12/29 07:48:28;;;;;;;2.38;0.98;;;-1.50;99.90;;;;;;5015337;28;20032;-91
2021/12/29 07:50:54;;;;;;;0.47;0.38;;;-1.50;99.90;;;;;;5015332;28;20053;-91
2021/12/29 07:53:21;;;;;;;0.73;0.40;;;-1.50;99.90;;;;;;5015232;28;20060;-91
2021/12/29 07:55:47;;;;;;;0.55;0.50;;;-1.50;99.90;;;;;;5015292;28;20045;-92
2021/12/29 07:58:13;;;;;;;2.05;0.40;;;-1.50;99.90;;;;;;5015246;28;20026;-91
2021/12/29 08:00:39;;;;;;;1.30;0.93;;;-1.40;99.90;;;;;;5027618;28;20029;-90
2021/12/29 08:03:05;;;;;;;0.35;0.35;;;-1.40;99.90;;;;;;5034188;28;20064;-89
2021/12/29 08:05:31;;;;;;;2.35;0.88;;;-1.40;99.90;;;;;;5034783;28;20057;-89
2021/12/29 08:07:56;;;;;;;3.15;1.17;;;-1.40;99.90;;;;;;5034317;28;20032;-89
2021/12/29 08:10:22;;;;;;;1.40;1.02;;;-1.40;99.90;;;;;;5034405;28;20037;-90
2021/12/29 08:12:48;;;;;;;1.10;0.65;;;-1.40;99.90;;;;;;5034328;28;20495;-90
2021/12/29 08:15:15;;;;;;;1.77;1.05;;;-1.40;99.90;;;;;;5034087;28;20028;-89
2021/12/29 08:17:41;;;;;;;2.78;0.93;;;-1.30;99.90;;;;;;5034302;28;20036;-89
2021/12/29 08:20:08;;;;;;;1.83;1.23;;;-1.40;99.90;;;;;;5034295;28;20022;-89
2021/12/29 08:22:35;;;;;;;5.75;1.27;;;-1.30;99.90;;;;;;5034496;28;20026;-90
2021/12/29 08:25:00;;;;;;;2.15;1.20;;;-1.30;99.90;;;;;;5034193;28;20025;-90
2021/12/29 08:27:26;;;;;;;1.63;1.08;;;-1.30;99.90;;;;;;5034216;28;20048;-89
2021/12/29 08:29:52;;;;;;;1.63;0.82;;;-1.30;99.90;;;;;;5033997;28;20060;-89
2021/12/29 08:32:18;;;;;;;2.83;1.17;;;-1.30;99.90;;;;;;5034247;28;20036;-89
2021/12/29 08:34:44;;;;;;;3.60;2.22;;;-1.30;99.90;;;;;;5034275;28;20025;-89
2021/12/29 08:37:10;;;;;;;5.07;2.33;;;-1.20;99.90;;;;;;5035054;28;20060;-89
2021/12/29 08:39:35;;;;;;;5.93;1.50;;;-1.20;99.90;;;;;;5033751;28;20384;-89
2021/12/29 08:42:01;;;;;;;2.40;1.83;;;-1.20;99.90;;;;;;5034935;28;20057;-90
2021/12/29 08:44:27;;;;;;;3.97;1.85;;;-1.20;99.90;;;;;;5033595;28;20029;-91
2021/12/29 08:46:53;;;;;;;3.40;2.28;;;-1.20;99.90;;;;;;5033572;28;20034;-90
2021/12/29 08:49:19;;;;;;;5.32;1.65;;;-1.20;99.90;;;;;;5033796;28;20025;-89
2021/12/29 08:51:44;;;;;;;3.65;1.70;;;-1.20;99.90;;;;;;5033698;28;20504;-91
2021/12/29 08:54:10;;;;;;;2.13;1.38;;;-1.20;99.90;;;;;;5034475;28;20434;-90
2021/12/29 08:56:36;;;;;;;3.53;1.52;;;-1.20;99.90;;;;;;5033885;28;20022;-90
2021/12/29 08:59:02;;;;;;;4.03;1.60;;;-1.20;99.90;;;;;;5033595;28;20022;-90
2021/12/29 09:01:30;;;;;;;3.35;1.60;;;-1.20;99.90;;;;;;5033775;28;20403;-90
2021/12/29 09:03:56;;;;;;;2.25;1.52;;;-1.20;99.90;;;;;;5033850;28;20099;-90
2021/12/29 09:06:22;;;;;;;3.65;1.75;;;-1.10;99.90;;;;;;5033647;28;20056;-88
2021/12/29 09:08:48;;;;;;;2.22;1.20;;;-1.20;99.90;;;;;;5033791;28;20029;-89
2021/12/29 09:11:15;;;;;;;3.50;1.85;;;-1.20;99.90;;;;;;5034067;28;20028;-89
2021/12/29 09:13:41;;;;;;;5.80;1.98;;;-1.10;99.90;;;;;;5033906;28;20111;-88
2021/12/29 09:16:08;;;;;;;4.03;1.88;;;-1.10;99.90;;;;;;5033584;28;20025;-88
2021/12/29 09:18:36;;;;;;;2.67;1.35;;;-1.10;99.90;;;;;;5034699;28;20048;-89
2021/12/29 09:21:11;;;;;;;1.95;1.13;;;-1.10;99.90;;;;;;5033475;28;20558;-91
2021/12/29 09:23:38;;;;;;;1.02;0.80;;;-1.10;99.90;;;;;;5033650;28;20033;-91
2021/12/29 09:26:05;;;;;;;4.97;1.80;;;-1.10;99.90;;;;;;5033442;28;20021;-90
2021/12/29 09:28:31;;;;;;;4.88;1.88;;;-1.10;99.90;;;;;;5033019;28;20041;-90
2021/12/29 09:30:57;;;;;;;3.10;1.70;;;-1.10;99.90;;;;;;5033362;28;20025;-90
2021/12/29 09:33:23;;;;;;;6.38;2.97;;;-1.10;99.90;;;;;;5033338;28;20034;-90
2021/12/29 09:35:52;;;;;;;4.72;1.85;;;-1.00;99.90;;;;;;5033376;28;20082;-90
2021/12/29 09:38:19;;;;;;;3.35;1.98;;;-1.00;99.90;;;;;;5033415;28;20022;-90
2021/12/29 09:40:46;;;;;;;7.00;2.05;;;-1.10;99.90;;;;;;5033198;28;20028;-90
2021/12/29 09:43:13;;;;;;;5.47;2.00;;;-1.00;99.90;;;;;;5033065;28;20032;-91
2021/12/29 09:45:41;;;;;;;4.72;2.13;;;-1.00;99.90;;;;;;5033438;28;20088;-90
2021/12/29 09:48:07;;;;;;;3.25;2.10;;;-1.00;99.90;;;;;;5033268;28;20025;-90
2021/12/29 09:50:34;;;;;;;5.63;2.42;;;-1.00;99.90;;;;;;5033337;28;20417;-90
2021/12/29 09:53:00;;;;;;;6.55;2.45;;;-1.00;99.90;;;;;;5033282;28;20061;-91
2021/12/29 09:55:26;;;;;;;5.93;2.97;;;-1.00;99.90;;;;;;5033295;28;20387;-91
2021/12/29 09:57:56;;;;;;;5.43;2.00;;;-1.00;99.90;;;;;;5032912;28;20025;-90
2021/12/29 10:00:33;;;;;;;4.03;2.60;;;-1.00;99.90;;;;;;5033076;28;20017;-90
2021/12/29 10:03:01;;;;;;;4.53;2.85;;;-1.00;99.90;;;;;;5033076;28;20032;-91
2021/12/29 10:05:28;;;;;;;3.17;1.75;;;-1.00;99.90;;;;;;5033107;28;20095;-90
2021/12/29 10:08:25;;;;;;;4.55;2.28;;;-1.00;99.90;;;;;;5033089;28;20026;-90
2021/12/29 10:10:54;;;;;;;2.85;1.70;;;-1.00;99.90;;;;;;5031392;28;20033;-90
2021/12/29 10:13:20;;;;;;;7.82;2.40;;;-0.90;99.90;;;;;;5033085;28;20035;-90
2021/12/29 10:15:55;;;;;;;4.22;1.90;;;-1.00;99.90;;;;;;5031491;28;20017;-91
2021/12/29 10:18:26;;;;;;;7.47;1.92;;;-1.00;99.90;;;;;;5014722;28;20045;-90
2021/12/29 10:20:57;;;;;;;4.63;2.50;;;-0.90;99.90;;;;;;5013483;28;20022;-90
2021/12/29 10:23:26;;;;;;;0.90;0.90;;;-0.90;99.90;;;;;;5013259;28;20419;-90
2021/12/29 10:25:53;;;;;;;4.07;1.83;;;-0.90;99.90;;;;;;5013109;28;20045;-89
2021/12/29 10:28:28;;;;;;;3.08;1.50;;;-0.90;99.90;;;;;;5013037;28;20033;-90
2021/12/29 10:31:22;;;;;;;1.98;1.20;;;-0.90;99.90;;;;;;5013903;28;20030;-90
2021/12/29 10:34:02;;;;;;;10.07;1.98;;;-0.90;99.90;;;;;;5013005;28;20030;-90
2021/12/29 10:36:37;;;;;;;2.22;1.55;;;-0.90;99.90;;;;;;5014368;28;20380;-90
2021/12/29 10:39:15;;;;;;;4.55;2.33;;;-0.90;99.90;;;;;;5015225;28;20073;-89
2021/12/29 10:42:04;;;;;;;3.70;1.77;;;-0.90;99.90;;;;;;5016487;28;20033;-90
2021/12/29 10:44:42;;;;;;;3.25;1.52;;;-0.90;99.90;;;;;;5017261;28;20427;-90
2021/12/29 10:47:20;;;;;;;3.15;2.00;;;-0.90;99.90;;;;;;5016696;28;20030;-89
2021/12/29 10:50:04;;;;;;;1.58;0.98;;;-0.90;99.90;;;;;;5016433;28;20026;-89
2021/12/29 10:52:45;;;;;;;1.65;1.20;;;-0.90;99.90;;;;;;5015710;28;20078;-90
2021/12/29 10:55:22;;;;;;;4.35;2.10;;;-0.90;99.90;;;;;;5017635;28;20026;-89
2021/12/29 10:58:07;;;;;;;8.25;2.13;;;-0.90;99.90;;;;;;5016391;28;20033;-90
2021/12/29 11:00:36;;;;;;;5.03;1.95;;;-0.90;99.90;;;;;;5016335;28;20022;-90
2021/12/29 11:03:29;;;;;;;2.20;1.20;;;-0.90;99.90;;;;;;5016217;28;20037;-90
2021/12/29 11:05:58;;;;;;;4.18;1.38;;;-0.90;99.90;;;;;;5015277;28;20065;-90
2021/12/29 11:08:31;;;;;;;8.17;2.33;;;-0.90;99.90;;;;;;5016112;28;20045;-90
2021/12/29 11:11:07;;;;;;;6.22;1.63;;;-0.90;99.90;;;;;;5017309;28;20057;-89
2021/12/29 11:13:34;;;;;;;1.85;1.13;;;-0.90;99.90;;;;;;5016011;28;20026;-90
2021/12/29 11:16:03;;;;;;;2.38;1.45;;;-0.90;99.90;;;;;;5016278;28;20030;-90
2021/12/29 11:18:51;;;;;;;3.30;1.20;;;-0.90;99.90;;;;;;5016079;28;20025;-91
2021/12/29 11:21:46;;;;;;;2.85;1.10;;;-0.90;99.90;;;;;;5015969;28;20029;-91
2021/12/29 11:24:20;;;;;;;3.63;1.55;;;-0.90;99.90;;;;;;5011722;28;20038;-91
2021/12/29 11:26:49;;;;;;;2.58;1.45;;;-0.80;99.90;;;;;;5015941;28;20053;-91
2021/12/29 11:29:17;;;;;;;1.40;0.90;;;-0.90;99.90;;;;;;5015673;28;20057;-91
2021/12/29 11:31:51;;;;;;;4.40;1.73;;;-0.90;99.90;;;;;;5015719;28;20053;-91
2021/12/29 11:34:27;;;;;;;3.50;1.48;;;-0.90;99.90;;;;;;5015667;28;20030;-90
2021/12/29 11:37:13;;;;;;;2.60;1.73;;;-0.90;99.90;;;;;;5015343;28;20029;-90
2021/12/29 11:39:45;;;;;;;3.90;1.48;;;-0.80;99.90;;;;;;5015542;28;20022;-91
2021/12/29 11:42:12;;;;;;;4.78;1.90;;;-0.80;99.90;;;;;;5015562;28;20025;-89
2021/12/29 11:44:38;;;;;;;2.25;1.30;;;-0.80;99.90;;;;;;5015793;28;20072;-88
2021/12/29 11:47:05;;;;;;;1.75;0.70;;;-0.90;99.90;;;;;;5015558;28;20061;-88
2021/12/29 11:49:31;;;;;;;4.00;1.35;;;-0.90;99.90;;;;;;5015608;28;20033;-88
2021/12/29 11:51:59;;;;;;;5.40;1.75;;;-0.80;99.90;;;;;;5015119;28;20042;-88
2021/12/29 11:54:36;;;;;;;4.35;1.90;;;-0.80;99.90;;;;;;5016438;28;20052;-88
2021/12/29 11:57:32;;;;;;;4.75;2.30;;;-0.80;99.90;;;;;;5015558;28;20022;-89
2021/12/29 12:00:14;;;;;;;2.22;1.55;;;-0.90;99.90;;;;;;5010786;28;20033;-89
2021/12/29 12:02:41;;;;;;;4.30;2.10;;;-0.90;99.90;;;;;;5014991;28;20034;-89
2021/12/29 12:05:10;;;;;;;6.53;3.20;;;-0.90;99.90;;;;;;5016502;28;20417;-89
2021/12/29 12:07:36;;;;;;;4.38;2.13;;;-0.90;99.90;;;;;;5014988;28;20088;-89
2021/12/29 12:10:08;;;;;;;6.68;1.83;;;-0.90;99.90;;;;;;5015086;28;20061;-89
2021/12/29 12:12:37;;;;;;;3.47;1.90;;;-0.80;99.90;;;;;;5014785;28;20503;-89
2021/12/29 12:15:08;;;;;;;5.90;2.63;;;-0.80;99.90;;;;;;5015967;28;20026;-89
2021/12/29 12:17:34;;;;;;;5.97;2.10;;;-0.80;99.90;;;;;;5014714;28;20022;-89
2021/12/29 12:20:02;;;;;;;5.75;2.92;;;-0.80;99.90;;;;;;5014519;28;20034;-89
2021/12/29 12:22:29;;;;;;;6.95;2.92;;;-0.90;99.90;;;;;;5014663;28;20029;-90
2021/12/29 12:24:54;;;;;;;8.55;3.00;;;-0.80;99.90;;;;;;5014864;28;20026;-90
2021/12/29 12:27:31;;;;;;;6.80;2.55;;;-0.80;99.90;;;;;;5014712;28;20488;-90
2021/12/29 12:30:13;;;;;;;8.65;3.17;;;-0.90;99.90;;;;;;5015799;28;20026;-90
2021/12/29 12:32:50;;;;;;;10.57;2.55;;;-0.80;99.90;;;;;;5014489;28;20030;-90
2021/12/29 12:35:48;;;;;;;3.13;1.67;;;-0.90;99.90;;;;;;5014884;28;20057;-90
2021/12/29 12:38:21;;;;;;;4.72;1.65;;;-0.90;99.90;;;;;;5003908;28;20175;-90
2021/12/29 12:41:06;;;;;;;9.18;2.63;;;-0.80;99.90;;;;;;5014643;28;20076;-90
2021/12/29 12:43:35;;;;;;;14.75;3.42;;;-0.80;99.90;;;;;;5014541;28;20559;-90
2021/12/29 12:46:01;;;;;;;8.25;2.70;;;-0.90;99.90;;;;;;5014376;28;20029;-90
2021/12/29 12:48:34;;;;;;;9.07;2.67;;;-0.90;99.90;;;;;;5015509;28;20030;-90
2021/12/29 12:51:12;;;;;;;9.15;2.80;;;-0.90;99.90;;;;;;5013971;28;20566;-90
2021/12/29 12:53:38;;;;;;;4.80;2.15;;;-0.90;99.90;;;;;;5014907;28;20139;-90
2021/12/29 12:56:06;;;;;;;5.38;2.78;;;-0.90;99.90;;;;;;5013739;28;20045;-90
2021/12/29 12:58:38;;;;;;;3.85;2.30;;;-0.90;99.90;;;;;;5013801;28;20026;-90
2021/12/29 13:01:26;;;;;;;3.85;2.10;;;-0.90;99.90;;;;;;5014018;28;20022;-90
2021/12/29 13:03:53;;;;;;;9.48;3.72;;;-0.90;99.90;;;;;;5013624;28;20032;-91